createdAt,value
2017-10-28T00:00:01.266Z,0.5
2017-10-28T00:01:01.268Z,0.5
2017-10-28T00:02:01.325Z,0.6
2017-10-28T00:03:01.271Z,0.8
2017-10-28T00:04:01.264Z,1
2017-10-28T00:05:01.258Z,1.2
2017-10-28T00:06:01.263Z,1.2
2017-10-28T00:07:01.304Z,1.3
2017-10-28T00:08:01.263Z,1.3
2017-10-28T00:09:01.258Z,1.2
2017-10-28T00:10:01.266Z,1.2
2017-10-28T00:11:01.262Z,1.1
2017-10-28T00:12:01.318Z,1.2
2017-10-28T00:13:01.262Z,1.4
2017-10-28T00:14:01.268Z,2
2017-10-28T00:15:01.253Z,2.3
2017-10-28T00:16:01.261Z,2.1
2017-10-28T00:17:01.326Z,2.2
2017-10-28T00:18:01.250Z,2.1
2017-10-28T00:19:01.249Z,2
2017-10-28T00:20:01.257Z,1.9
2017-10-28T00:21:01.265Z,2
2017-10-28T00:22:01.312Z,2.2
2017-10-28T00:23:01.258Z,2.8
2017-10-28T00:24:01.254Z,3
2017-10-28T00:25:01.260Z,3.1
2017-10-28T00:26:01.256Z,3.1
2017-10-28T00:27:01.313Z,3.6
2017-10-28T00:28:01.261Z,3.3
2017-10-28T00:29:01.260Z,3
2017-10-28T00:30:01.262Z,3.2
2017-10-28T00:31:01.263Z,3.2
2017-10-28T00:32:01.252Z,3.1
2017-10-28T00:33:01.251Z,3
2017-10-28T00:34:01.248Z,3
2017-10-28T00:35:01.258Z,2.8
2017-10-28T00:36:01.253Z,2.6
2017-10-28T00:37:01.244Z,2.3
2017-10-28T00:38:01.258Z,2.2
2017-10-28T00:39:01.248Z,2.1
2017-10-28T00:40:01.245Z,2.4
2017-10-28T00:41:01.251Z,2.3
2017-10-28T00:42:01.246Z,2.4
2017-10-28T00:43:01.250Z,3
2017-10-28T00:44:01.237Z,3.1
2017-10-28T00:45:01.246Z,2.9
2017-10-28T00:46:01.248Z,3.1
2017-10-28T00:47:01.251Z,2.9
2017-10-28T00:48:01.243Z,2.7
2017-10-28T00:49:01.244Z,2.4
2017-10-28T00:50:01.242Z,2.2
2017-10-28T00:51:01.246Z,2.2
2017-10-28T00:52:01.234Z,2
2017-10-28T00:53:01.255Z,1.8
2017-10-28T00:54:01.252Z,1.6
2017-10-28T00:55:01.258Z,1.5
2017-10-28T00:56:01.252Z,1.4
2017-10-28T00:57:01.239Z,1.2
2017-10-28T00:58:01.242Z,1.2
2017-10-28T00:59:01.249Z,1.1
2017-10-28T01:00:01.240Z,1.2
2017-10-28T01:01:01.243Z,1.2
2017-10-28T01:02:01.251Z,1.1
2017-10-28T01:03:01.237Z,1.1
2017-10-28T01:04:01.236Z,1.2
2017-10-28T01:05:01.256Z,1.2
2017-10-28T01:06:01.248Z,1.3
2017-10-28T01:07:01.243Z,1.5
2017-10-28T01:08:01.235Z,1.6
2017-10-28T01:09:01.239Z,1.4
2017-10-28T01:10:01.234Z,1.5
2017-10-28T01:11:01.244Z,1.5
2017-10-28T01:12:01.229Z,1.5
2017-10-28T01:13:01.230Z,1.3
2017-10-28T01:14:01.232Z,1.4
2017-10-28T01:15:01.233Z,1.3
2017-10-28T01:16:01.237Z,2.1
2017-10-28T01:17:01.234Z,2.5
2017-10-28T01:18:01.243Z,2.5
2017-10-28T01:19:01.239Z,2.9
2017-10-28T01:20:01.235Z,4
2017-10-28T01:21:01.238Z,4.7
2017-10-28T01:22:01.243Z,4.7
2017-10-28T01:23:01.229Z,4.9
2017-10-28T01:24:09.763Z,0.8
2017-10-28T01:25:09.758Z,1
2017-10-28T01:26:09.764Z,1
2017-10-28T01:27:09.822Z,1.9
2017-10-28T01:28:09.769Z,3
2017-10-28T01:29:09.765Z,3.7
2017-10-28T01:30:09.749Z,4.5
2017-10-28T01:31:09.773Z,5.4
2017-10-28T01:32:09.826Z,5.7
2017-10-28T01:33:09.769Z,6.1
2017-10-28T01:34:09.764Z,7.1
2017-10-28T01:35:09.756Z,7.4
2017-10-28T01:36:09.761Z,8.1
2017-10-28T01:37:09.805Z,8.4
2017-10-28T01:38:09.759Z,8.6
2017-10-28T01:39:09.771Z,8.6
2017-10-28T01:40:09.754Z,8.8
2017-10-28T01:41:09.750Z,9
2017-10-28T01:42:09.806Z,9
2017-10-28T01:43:09.768Z,9.1
2017-10-28T01:44:09.765Z,9.2
2017-10-28T01:45:09.751Z,9.3
2017-10-28T01:46:09.755Z,9.2
2017-10-28T01:47:09.831Z,9.2
2017-10-28T01:48:09.751Z,9.4
2017-10-28T01:49:09.753Z,9.5
2017-10-28T01:50:09.757Z,9
2017-10-28T01:51:09.746Z,8.9
2017-10-28T01:52:09.829Z,8.8
2017-10-28T01:53:09.754Z,8.9
2017-10-28T01:54:09.757Z,8.8
2017-10-28T01:55:09.751Z,9.1
2017-10-28T01:56:09.750Z,9.4
2017-10-28T01:57:09.819Z,9.1
2017-10-28T01:58:09.751Z,9.2
2017-10-28T01:59:09.749Z,9.4
2017-10-28T02:00:09.768Z,9.5
2017-10-28T02:01:09.762Z,9.1
2017-10-28T02:02:09.789Z,9
2017-10-28T02:03:09.751Z,9
2017-10-28T02:04:09.741Z,8.8
2017-10-28T02:05:09.752Z,8.7
2017-10-28T02:06:09.744Z,9.2
2017-10-28T02:07:09.748Z,9.9
2017-10-28T02:08:09.744Z,10.1
2017-10-28T02:09:09.751Z,10.5
2017-10-28T02:10:09.748Z,10.3
2017-10-28T02:11:09.746Z,10.1
2017-10-28T02:12:09.758Z,10.4
2017-10-28T02:13:09.738Z,10.3
2017-10-28T02:14:09.758Z,10.1
2017-10-28T02:15:09.749Z,10
2017-10-28T02:16:09.739Z,9.7
2017-10-28T02:17:09.755Z,9.7
2017-10-28T02:18:09.742Z,9.6
2017-10-28T02:19:09.744Z,9.6
2017-10-28T02:20:09.741Z,8.9
2017-10-28T02:21:09.736Z,8.3
2017-10-28T02:22:09.784Z,7.8
2017-10-28T02:23:09.755Z,7.5
2017-10-28T02:24:09.736Z,7.1
2017-10-28T02:25:09.751Z,6.5
2017-10-28T02:26:09.743Z,6.4
2017-10-28T02:27:09.746Z,6.7
2017-10-28T02:28:09.736Z,6.5
2017-10-28T02:29:09.741Z,6.2
2017-10-28T02:30:09.733Z,5.8
2017-10-28T02:31:09.742Z,5.3
2017-10-28T02:32:09.732Z,4.9
2017-10-28T02:33:09.740Z,4.9
2017-10-28T02:34:09.738Z,5
2017-10-28T02:35:09.736Z,4.6
2017-10-28T02:36:09.736Z,4.5
2017-10-28T02:37:09.729Z,4.3
2017-10-28T02:38:09.740Z,4.4
2017-10-28T02:39:09.734Z,4.6
2017-10-28T02:40:09.733Z,5.8
2017-10-28T02:41:09.745Z,5.9
2017-10-28T02:42:09.744Z,5.6
2017-10-28T02:43:09.776Z,5.5
2017-10-28T02:44:09.737Z,5.1
2017-10-28T02:45:09.744Z,4.7
2017-10-28T02:46:09.737Z,5.5
2017-10-28T02:47:09.730Z,6.2
2017-10-28T02:48:09.776Z,6.8
2017-10-28T02:49:09.755Z,6.9
2017-10-28T02:50:09.733Z,6.8
2017-10-28T02:51:09.744Z,7.2
2017-10-28T02:52:09.740Z,7.8
2017-10-28T02:53:09.778Z,8.3
2017-10-28T02:54:09.739Z,8.6
2017-10-28T02:55:09.735Z,9.7
2017-10-28T02:56:09.733Z,10.2
2017-10-28T02:57:09.738Z,10.3
2017-10-28T02:58:09.776Z,9.9
2017-10-28T02:59:09.729Z,10.5
2017-10-28T03:00:09.738Z,9.6
2017-10-28T03:01:09.738Z,8.9
2017-10-28T03:02:09.733Z,8.4
2017-10-28T03:03:09.805Z,8.2
2017-10-28T03:04:09.728Z,8.1
2017-10-28T03:05:09.720Z,7.8
2017-10-28T03:06:09.726Z,7.3
2017-10-28T03:07:09.737Z,7.3
2017-10-28T03:08:09.779Z,7.2
2017-10-28T03:09:09.734Z,6.7
2017-10-28T03:10:09.732Z,6.5
2017-10-28T03:11:09.721Z,6.1
2017-10-28T03:12:09.723Z,5.6
2017-10-28T03:13:09.722Z,5.3
2017-10-28T03:14:09.721Z,5.8
2017-10-28T03:15:09.723Z,6
2017-10-28T03:16:09.731Z,6.1
2017-10-28T03:17:09.728Z,5.9
2017-10-28T03:18:09.732Z,6.2
2017-10-28T03:19:09.720Z,6.7
2017-10-28T03:20:09.717Z,7
2017-10-28T03:21:09.721Z,7.8
2017-10-28T03:22:09.714Z,8.1
2017-10-28T03:23:09.719Z,7.9
2017-10-28T03:24:09.736Z,7.6
2017-10-28T03:25:09.723Z,8
2017-10-28T03:26:09.717Z,8.1
2017-10-28T03:27:09.717Z,7.9
2017-10-28T03:28:09.715Z,8
2017-10-28T03:29:09.727Z,7.6
2017-10-28T03:30:09.716Z,8
2017-10-28T03:31:09.707Z,8
2017-10-28T03:32:09.723Z,7.4
2017-10-28T03:33:09.731Z,7.7
2017-10-28T03:34:09.719Z,8
2017-10-28T03:35:09.717Z,8.4
2017-10-28T03:36:09.721Z,8.2
2017-10-28T03:37:09.723Z,8.8
2017-10-28T03:38:09.711Z,9
2017-10-28T03:39:09.713Z,8.8
2017-10-28T03:40:09.719Z,9.1
2017-10-28T03:41:09.768Z,9.1
2017-10-28T03:42:09.711Z,9.6
2017-10-28T03:43:09.715Z,9.2
2017-10-28T03:44:09.722Z,8.8
2017-10-28T03:45:09.713Z,8.9
2017-10-28T03:46:09.710Z,9.1
2017-10-28T03:47:09.716Z,9.4
2017-10-28T03:48:09.706Z,10
2017-10-28T03:49:09.713Z,10.6
2017-10-28T03:50:09.709Z,10.9
2017-10-28T03:51:09.706Z,10.8
2017-10-28T03:52:09.708Z,10.8
2017-10-28T03:57:09.719Z,10.5
2017-10-28T03:58:09.711Z,11.1
2017-10-28T03:59:09.714Z,10.9
2017-10-28T04:00:09.709Z,10.9
2017-10-28T04:01:09.705Z,10.9
2017-10-28T04:02:09.715Z,11
2017-10-28T04:03:09.713Z,11
2017-10-28T04:04:09.742Z,11.1
2017-10-28T04:05:09.717Z,10.9
2017-10-28T04:06:09.718Z,11
2017-10-28T04:07:09.707Z,10.6
2017-10-28T04:08:09.697Z,10.8
2017-10-28T04:09:09.747Z,10.3
2017-10-28T04:10:09.692Z,10.5
2017-10-28T04:11:09.705Z,10.7
2017-10-28T04:12:09.722Z,11.1
2017-10-28T04:13:09.706Z,11.1
2017-10-28T04:14:09.779Z,11
2017-10-28T04:15:09.713Z,11.5
2017-10-28T04:16:09.697Z,11.1
2017-10-28T04:17:09.703Z,11.4
2017-10-28T04:18:09.699Z,11.7
2017-10-28T04:19:09.753Z,11.9
2017-10-28T04:20:09.701Z,12.6
2017-10-28T04:21:09.706Z,13
2017-10-28T04:22:09.705Z,13
2017-10-28T04:23:09.708Z,12.5
2017-10-28T04:24:09.766Z,13
2017-10-28T04:25:09.692Z,13.6
2017-10-28T04:26:09.699Z,13.8
2017-10-28T04:27:09.705Z,13.4
2017-10-28T04:28:09.697Z,13.5
2017-10-28T04:29:09.762Z,13.4
2017-10-28T04:30:09.703Z,13.6
2017-10-28T04:31:09.709Z,13.2
2017-10-28T04:32:09.697Z,12.7
2017-10-28T04:33:09.700Z,12.5
2017-10-28T04:34:09.751Z,12.7
2017-10-28T04:35:09.698Z,12.6
2017-10-28T04:36:09.699Z,13
2017-10-28T04:37:09.697Z,12.4
2017-10-28T04:38:09.702Z,11.7
2017-10-28T04:39:09.748Z,12
2017-10-28T04:40:09.690Z,12.2
2017-10-28T04:41:09.703Z,12.7
2017-10-28T04:42:09.705Z,13.5
2017-10-28T04:43:09.694Z,13
2017-10-28T04:44:09.685Z,12.7
2017-10-28T04:45:09.694Z,11.8
2017-10-28T04:46:09.696Z,11.9
2017-10-28T04:47:09.686Z,12
2017-10-28T04:48:09.689Z,12.2
2017-10-28T04:49:09.684Z,12.5
2017-10-28T04:50:09.689Z,12.2
2017-10-28T04:51:09.695Z,11.8
2017-10-28T04:52:09.695Z,11.4
2017-10-28T04:53:09.679Z,11.3
2017-10-28T04:54:09.698Z,11.4
2017-10-28T04:55:09.689Z,11.2
2017-10-28T04:56:09.696Z,10.9
2017-10-28T04:57:09.685Z,10.8
2017-10-28T04:58:09.686Z,11
2017-10-28T04:59:09.682Z,10.5
2017-10-28T05:00:09.683Z,10.1
2017-10-28T05:01:09.678Z,9.8
2017-10-28T05:02:09.678Z,9.7
2017-10-28T05:03:09.690Z,9.7
2017-10-28T05:04:09.681Z,9.5
2017-10-28T05:05:09.687Z,10.3
2017-10-28T05:06:09.681Z,9.9
2017-10-28T05:07:09.672Z,10.2
2017-10-28T05:08:09.680Z,10.5
2017-10-28T05:09:09.692Z,11.4
2017-10-28T05:10:09.681Z,11.2
2017-10-28T05:11:09.690Z,11.6
2017-10-28T05:12:09.674Z,10.9
2017-10-28T05:13:09.678Z,11
2017-10-28T05:14:09.691Z,10.9
2017-10-28T05:15:09.687Z,11.2
2017-10-28T05:16:09.680Z,11.5
2017-10-28T05:17:09.681Z,12.4
2017-10-28T05:18:09.687Z,12.9
2017-10-28T05:19:09.675Z,12.8
2017-10-28T05:20:09.673Z,12.1
2017-10-28T05:21:09.689Z,12
2017-10-28T05:22:09.685Z,11.9
2017-10-28T05:23:09.682Z,12.4
2017-10-28T05:24:09.672Z,12.6
2017-10-28T05:25:09.722Z,12.4
2017-10-28T05:26:09.673Z,12
2017-10-28T05:27:09.677Z,11.4
2017-10-28T05:28:09.703Z,11.5
2017-10-28T05:29:09.864Z,11.3
2017-10-28T05:30:09.715Z,11.6
2017-10-28T05:31:09.680Z,12.7
2017-10-28T05:32:09.675Z,12.4
2017-10-28T05:33:09.689Z,13.1
2017-10-28T05:34:09.682Z,13.6
2017-10-28T05:35:09.714Z,13.5
2017-10-28T05:36:09.685Z,12.9
2017-10-28T05:37:09.679Z,12.7
2017-10-28T05:38:09.668Z,12.3
2017-10-28T05:39:09.661Z,12.7
2017-10-28T05:40:09.725Z,12.8
2017-10-28T05:41:09.683Z,12.7
2017-10-28T05:42:09.669Z,12.6
2017-10-28T05:43:09.670Z,12.6
2017-10-28T05:44:09.664Z,12.8
2017-10-28T05:45:09.693Z,13.3
2017-10-28T05:46:09.672Z,12.8
2017-10-28T05:47:09.672Z,13.3
2017-10-28T05:48:09.668Z,13.4
2017-10-28T05:49:09.672Z,13
2017-10-28T05:50:09.710Z,12.3
2017-10-28T05:51:09.661Z,11.5
2017-10-28T05:52:09.665Z,11.5
2017-10-28T05:53:09.665Z,11.8
2017-10-28T05:54:09.670Z,12.2
2017-10-28T05:55:09.710Z,11.8
2017-10-28T05:56:09.668Z,12.2
2017-10-28T05:57:09.677Z,11.3
2017-10-28T05:58:09.661Z,11.5
2017-10-28T05:59:09.668Z,10.9
2017-10-28T06:00:14.884Z,0.5
2017-10-28T06:01:14.832Z,0.6
2017-10-28T06:02:14.840Z,1.1
2017-10-28T06:03:14.838Z,2.4
2017-10-28T06:04:14.831Z,2.8
2017-10-28T06:05:14.900Z,3.8
2017-10-28T06:06:14.837Z,4.4
2017-10-28T06:07:14.839Z,5.2
2017-10-28T06:08:14.843Z,6.1
2017-10-28T06:09:14.835Z,6.5
2017-10-28T06:10:14.898Z,6.8
2017-10-28T06:11:14.832Z,6.5
2017-10-28T06:12:14.827Z,6
2017-10-28T06:13:14.837Z,6.2
2017-10-28T06:14:14.839Z,7
2017-10-28T06:15:14.860Z,6.9
2017-10-28T06:16:14.846Z,7.6
2017-10-28T06:17:14.849Z,7.7
2017-10-28T06:18:14.828Z,7.3
2017-10-28T06:19:14.832Z,7
2017-10-28T06:20:14.834Z,7.6
2017-10-28T06:21:14.830Z,7.4
2017-10-28T06:22:14.838Z,7.7
2017-10-28T06:23:14.832Z,8.1
2017-10-28T06:24:14.832Z,8.6
2017-10-28T06:25:14.834Z,8.4
2017-10-28T06:26:14.827Z,8.4
2017-10-28T06:27:14.828Z,7.8
2017-10-28T06:28:14.830Z,7.5
2017-10-28T06:29:14.818Z,7
2017-10-28T06:30:14.819Z,6.8
2017-10-28T06:31:14.829Z,6.6
2017-10-28T06:32:14.829Z,6.3
2017-10-28T06:33:14.822Z,6
2017-10-28T06:34:14.826Z,6
2017-10-28T06:35:14.810Z,5.7
2017-10-28T06:36:14.855Z,5.2
2017-10-28T06:37:14.814Z,4.9
2017-10-28T06:38:15.565Z,5
2017-10-28T06:39:14.853Z,4.8
2017-10-28T06:40:14.978Z,4.7
2017-10-28T06:41:14.857Z,4.4
2017-10-28T06:42:14.861Z,5.1
2017-10-28T06:43:14.951Z,5.7
2017-10-28T06:44:14.875Z,5.6
2017-10-28T06:45:15.005Z,5.6
2017-10-28T06:46:14.867Z,5.4
2017-10-28T06:47:14.931Z,5.4
2017-10-28T06:48:14.949Z,5.4
2017-10-28T06:49:14.811Z,5.8
2017-10-28T06:50:16.125Z,5.9
2017-10-28T06:51:17.701Z,5.7
2017-10-28T06:52:15.020Z,5.4
2017-10-28T06:53:16.007Z,5.4
2017-10-28T06:54:14.988Z,5.9
2017-10-28T06:55:14.808Z,5.9
2017-10-28T06:56:14.875Z,6.2
2017-10-28T06:57:14.814Z,6.6
2017-10-28T06:58:14.821Z,6.7
2017-10-28T06:59:14.815Z,7.1
2017-10-28T07:00:14.821Z,7.4
2017-10-28T07:01:14.864Z,7.1
2017-10-28T07:02:14.809Z,6.7
2017-10-28T07:03:14.823Z,6.7
2017-10-28T07:04:14.814Z,6.3
2017-10-28T07:05:14.812Z,5.8
2017-10-28T07:06:14.862Z,6.1
2017-10-28T07:07:14.819Z,6
2017-10-28T07:08:14.817Z,6.1
2017-10-28T07:09:14.811Z,6.6
2017-10-28T07:10:14.800Z,6.2
2017-10-28T07:11:14.883Z,5.9
2017-10-28T07:12:14.813Z,5.8
2017-10-28T07:13:14.817Z,5.5
2017-10-28T07:14:14.808Z,5.4
2017-10-28T07:15:14.819Z,5.4
2017-10-28T07:16:14.867Z,5.2
2017-10-28T07:17:14.821Z,5.3
2017-10-28T07:18:14.811Z,5.4
2017-10-28T07:19:14.809Z,5.5
2017-10-28T07:20:14.814Z,5.4
2017-10-28T07:21:14.854Z,5
2017-10-28T07:22:14.811Z,4.9
2017-10-28T07:23:14.836Z,4.7
2017-10-28T07:24:14.813Z,4.4
2017-10-28T07:25:14.806Z,4.2
2017-10-28T07:26:14.808Z,4.1
2017-10-28T07:27:14.826Z,3.9
2017-10-28T07:28:14.813Z,4.3
2017-10-28T07:29:14.807Z,4
2017-10-28T07:30:14.802Z,3.8
2017-10-28T07:31:14.809Z,3.7
2017-10-28T07:32:14.800Z,3.8
2017-10-28T07:33:14.805Z,3.7
2017-10-28T07:34:14.801Z,3.6
2017-10-28T07:35:14.803Z,3.6
2017-10-28T07:36:14.799Z,3.4
2017-10-28T07:37:14.804Z,3.5
2017-10-28T07:38:14.811Z,3.5
2017-10-28T07:39:14.817Z,3.3
2017-10-28T07:40:14.805Z,3.8
2017-10-28T07:41:14.784Z,4
2017-10-28T07:42:14.811Z,4
2017-10-28T07:43:14.806Z,4.1
2017-10-28T07:44:14.783Z,4.1
2017-10-28T07:45:14.927Z,4
2017-10-28T07:46:15.181Z,3.8
2017-10-28T07:47:14.839Z,3.5
2017-10-28T07:48:14.801Z,3.5
2017-10-28T07:49:14.799Z,3.5
2017-10-28T07:50:14.931Z,3.3
2017-10-28T07:51:14.797Z,3.7
2017-10-28T07:52:14.863Z,3.7
2017-10-28T07:53:14.796Z,4.1
2017-10-28T07:54:14.798Z,4.1
2017-10-28T07:55:14.793Z,3.9
2017-10-28T07:56:14.805Z,4.2
2017-10-28T07:57:14.915Z,4.7
2017-10-28T07:58:14.795Z,5.1
2017-10-28T07:59:14.797Z,5.1
2017-10-28T08:00:14.811Z,4.9
2017-10-28T08:01:14.797Z,4.7
2017-10-28T08:02:14.840Z,4.5
2017-10-28T08:03:14.807Z,4.4
2017-10-28T08:04:14.792Z,4.7
2017-10-28T08:05:14.813Z,5
2017-10-28T08:06:14.811Z,5
2017-10-28T08:07:14.770Z,4.7
2017-10-28T08:08:14.778Z,4.7
2017-10-28T08:09:14.794Z,4.9
2017-10-28T08:10:14.794Z,5
2017-10-28T08:11:14.786Z,4.9
2017-10-28T08:12:14.795Z,5.1
2017-10-28T08:13:14.791Z,5.2
2017-10-28T08:14:14.790Z,5.4
2017-10-28T08:15:14.802Z,5.1
2017-10-28T08:16:14.895Z,5.4
2017-10-28T08:17:14.786Z,5.3
2017-10-28T08:18:22.406Z,5.4
2017-10-28T08:19:17.149Z,5.7
2017-10-28T08:20:16.745Z,6
2017-10-28T08:21:17.486Z,5.9
2017-10-28T08:22:19.290Z,5.9
2017-10-28T08:23:14.821Z,5.6
2017-10-28T08:24:15.498Z,5.9
2017-10-28T08:25:14.767Z,5.8
2017-10-28T08:26:14.780Z,6.1
2017-10-28T08:27:14.767Z,6.1
2017-10-28T08:28:18.282Z,6.3
2017-10-28T08:29:15.566Z,6.2
2017-10-28T08:30:15.529Z,6
2017-10-28T08:31:15.520Z,5.7
2017-10-28T08:32:15.464Z,5.8
2017-10-28T08:33:15.435Z,5.5
2017-10-28T08:34:15.511Z,5.4
2017-10-28T08:35:24.890Z,5.7
2017-10-28T08:36:14.765Z,5.7
2017-10-28T08:37:14.780Z,5.3
2017-10-28T08:38:14.787Z,5.6
2017-10-28T08:39:14.781Z,5.7
2017-10-28T08:40:14.798Z,6.3
2017-10-28T08:41:14.841Z,6.7
2017-10-28T08:42:14.782Z,6.8
2017-10-28T08:43:14.794Z,6.7
2017-10-28T08:44:14.839Z,7.3
2017-10-28T08:45:14.784Z,6.8
2017-10-28T08:46:14.785Z,6.8
2017-10-28T08:47:14.779Z,6.8
2017-10-28T08:48:14.795Z,6.5
2017-10-28T08:49:14.841Z,7.5
2017-10-28T08:50:14.773Z,7.3
2017-10-28T08:51:14.827Z,7.3
2017-10-28T08:52:14.786Z,7
2017-10-28T08:53:14.788Z,6.6
2017-10-28T08:54:15.110Z,6.6
2017-10-28T08:55:14.759Z,6.1
2017-10-28T08:56:14.770Z,6.1
2017-10-28T08:57:14.769Z,6
2017-10-28T08:58:14.772Z,6.1
2017-10-28T08:59:14.820Z,6.9
2017-10-28T09:00:14.772Z,7.3
2017-10-28T09:01:14.797Z,7.6
2017-10-28T09:02:14.775Z,7.9
2017-10-28T09:03:14.895Z,8.1
2017-10-28T09:04:14.823Z,8.4
2017-10-28T09:05:14.760Z,9.1
2017-10-28T09:06:14.774Z,10.1
2017-10-28T09:07:14.769Z,9.8
2017-10-28T09:08:14.787Z,10
2017-10-28T09:09:14.834Z,9.5
2017-10-28T09:10:14.786Z,8.7
2017-10-28T09:11:14.768Z,9.2
2017-10-28T09:12:14.781Z,9.5
2017-10-28T09:13:14.774Z,9.3
2017-10-28T09:14:14.825Z,9.7
2017-10-28T09:15:14.767Z,10.7
2017-10-28T09:16:14.791Z,11.2
2017-10-28T09:17:14.765Z,11.8
2017-10-28T09:18:14.776Z,12.1
2017-10-28T09:19:14.850Z,12.1
2017-10-28T09:20:14.773Z,11.7
2017-10-28T09:21:14.786Z,10.9
2017-10-28T09:22:14.766Z,10.5
2017-10-28T09:23:14.767Z,10.3
2017-10-28T09:24:14.815Z,10.5
2017-10-28T09:25:14.772Z,10.3
2017-10-28T09:26:14.769Z,9.6
2017-10-28T09:27:14.764Z,9.9
2017-10-28T09:28:14.764Z,10.3
2017-10-28T09:29:14.767Z,10.6
2017-10-28T09:30:14.778Z,11
2017-10-28T09:31:14.776Z,11.1
2017-10-28T09:32:14.767Z,11.4
2017-10-28T09:33:14.818Z,11.5
2017-10-28T09:34:14.766Z,11.7
2017-10-28T09:35:14.762Z,12.1
2017-10-28T09:36:14.765Z,12.4
2017-10-28T09:37:14.765Z,12.2
2017-10-28T09:38:14.745Z,11.7
2017-10-28T09:39:14.741Z,12
2017-10-28T09:40:14.772Z,12.9
2017-10-28T09:41:14.778Z,12.4
2017-10-28T09:42:14.766Z,12.1
2017-10-28T09:43:14.756Z,11.2
2017-10-28T09:44:14.752Z,10.3
2017-10-28T09:45:14.757Z,10.1
2017-10-28T09:46:14.903Z,9.8
2017-10-28T09:47:14.761Z,10.1
2017-10-28T09:48:14.759Z,10.1
2017-10-28T09:49:14.784Z,10
2017-10-28T09:50:14.758Z,9.6
2017-10-28T09:51:14.743Z,9.3
2017-10-28T09:52:14.929Z,9.3
2017-10-28T09:53:15.236Z,8.9
2017-10-28T09:54:14.758Z,9.2
2017-10-28T09:55:14.742Z,8.9
2017-10-28T09:56:14.770Z,8.7
2017-10-28T09:57:14.759Z,8.3
2017-10-28T09:58:14.747Z,8.1
2017-10-28T09:59:14.763Z,8.2
2017-10-28T10:00:14.760Z,9.1
2017-10-28T10:01:14.745Z,9.1
2017-10-28T10:02:14.759Z,8.5
2017-10-28T10:03:14.760Z,9.5
2017-10-28T10:04:14.755Z,9.4
2017-10-28T10:05:14.763Z,8.8
2017-10-28T10:06:14.748Z,9.1
2017-10-28T10:07:14.756Z,8.6
2017-10-28T10:08:14.765Z,8.8
2017-10-28T10:09:14.765Z,8.7
2017-10-28T10:10:14.757Z,8.5
2017-10-28T10:11:14.753Z,8.3
2017-10-28T10:12:14.754Z,8.9
2017-10-28T10:13:14.775Z,9.4
2017-10-28T10:14:14.754Z,9.8
2017-10-28T10:15:14.754Z,9.8
2017-10-28T10:16:14.752Z,10
2017-10-28T10:17:14.750Z,11
2017-10-28T10:18:14.759Z,11.3
2017-10-28T10:19:14.747Z,11.8
2017-10-28T10:20:14.767Z,12.2
2017-10-28T10:21:14.748Z,12.1
2017-10-28T10:22:14.754Z,11.3
2017-10-28T10:23:14.750Z,11.3
2017-10-28T10:24:14.747Z,12.4
2017-10-28T10:25:14.790Z,12.7
2017-10-28T10:26:14.750Z,13
2017-10-28T10:27:14.755Z,12.8
2017-10-28T10:28:14.748Z,12.5
2017-10-28T10:29:14.763Z,11.7
2017-10-28T10:30:14.788Z,11
2017-10-28T10:31:14.768Z,10.3
2017-10-28T10:32:14.755Z,9.9
2017-10-28T10:33:14.766Z,9.9
2017-10-28T10:34:14.744Z,9.8
2017-10-28T10:35:14.791Z,10.1
2017-10-28T10:36:14.736Z,9.5
2017-10-28T10:37:14.746Z,9.2
2017-10-28T10:38:14.742Z,9.9
2017-10-28T10:39:14.746Z,9.4
2017-10-28T10:40:15.160Z,9
2017-10-28T10:41:14.753Z,8.5
2017-10-28T10:42:14.794Z,8.2
2017-10-28T10:43:14.744Z,8.1
2017-10-28T10:44:14.748Z,8.4
2017-10-28T10:45:14.793Z,8.4
2017-10-28T10:46:14.749Z,7.8
2017-10-28T10:47:14.738Z,8
2017-10-28T10:48:14.740Z,8.1
2017-10-28T10:49:14.721Z,8
2017-10-28T10:50:14.844Z,8.6
2017-10-28T10:51:14.723Z,9.7
2017-10-28T10:52:14.750Z,9.4
2017-10-28T10:53:14.739Z,9.5
2017-10-28T10:54:14.742Z,9.6
2017-10-28T10:55:14.745Z,10.1
2017-10-28T10:56:14.741Z,10.6
2017-10-28T10:57:14.777Z,10.3
2017-10-28T10:58:14.737Z,10.4
2017-10-28T10:59:14.774Z,11.1
2017-10-28T11:00:14.744Z,11.3
2017-10-28T11:01:14.758Z,11.4
2017-10-28T11:02:14.734Z,11.4
2017-10-28T11:03:14.736Z,11.8
2017-10-28T11:04:14.739Z,11.6
2017-10-28T11:05:14.725Z,12
2017-10-28T11:06:14.741Z,12
2017-10-28T11:07:14.746Z,11.9
2017-10-28T11:08:14.744Z,11.8
2017-10-28T11:09:14.737Z,11.9
2017-10-28T11:10:14.735Z,11.5
2017-10-28T11:11:14.737Z,11.2
2017-10-28T11:12:14.733Z,11.3
2017-10-28T11:13:14.730Z,11.8
2017-10-28T11:14:14.747Z,11.5
2017-10-28T11:15:14.743Z,11.4
2017-10-28T11:16:14.738Z,11.4
2017-10-28T11:17:14.735Z,11.8
2017-10-28T11:18:14.730Z,11.7
2017-10-28T11:19:14.737Z,11.8
2017-10-28T11:20:15.151Z,11.5
2017-10-28T11:21:14.784Z,12
2017-10-28T11:22:15.064Z,12.2
2017-10-28T11:23:14.723Z,12.9
2017-10-28T11:24:16.109Z,12.9
2017-10-28T11:25:14.899Z,14.1
2017-10-28T11:26:14.766Z,14.4
2017-10-28T11:27:14.743Z,14.9
2017-10-28T11:28:14.728Z,15.2
2017-10-28T11:29:14.730Z,15.5
2017-10-28T11:30:14.730Z,15
2017-10-28T11:31:14.795Z,14.9
2017-10-28T11:32:14.734Z,14.8
2017-10-28T11:33:14.733Z,15.2
2017-10-28T11:34:14.717Z,15.5
2017-10-28T11:35:14.712Z,16.2
2017-10-28T11:36:14.776Z,16.4
2017-10-28T11:37:14.719Z,16.7
2017-10-28T11:38:14.733Z,16.7
2017-10-28T11:39:14.742Z,16.9
2017-10-28T11:40:14.727Z,17.3
2017-10-28T11:41:14.792Z,16.8
2017-10-28T11:42:14.721Z,16.5
2017-10-28T11:43:14.730Z,16.6
2017-10-28T11:44:14.733Z,16.9
2017-10-28T11:45:14.751Z,17
2017-10-28T11:46:14.803Z,17.1
2017-10-28T11:47:14.734Z,17.2
2017-10-28T11:48:14.723Z,17.1
2017-10-28T11:49:14.724Z,17.5
2017-10-28T11:50:14.712Z,16.9
2017-10-28T11:51:14.772Z,17
2017-10-28T11:52:14.725Z,17.4
2017-10-28T11:53:14.736Z,17.7
2017-10-28T11:54:14.730Z,17.6
2017-10-28T11:55:14.730Z,17.4
2017-10-28T11:56:14.725Z,17.2
2017-10-28T11:57:14.732Z,17.4
2017-10-28T11:58:14.720Z,18.3
2017-10-28T11:59:14.716Z,17.4
2017-10-28T12:00:14.735Z,17.6
2017-10-28T12:01:16.442Z,17.9
2017-10-28T12:02:14.729Z,17.7
2017-10-28T12:03:14.728Z,17.6
2017-10-28T12:04:14.709Z,17.3
2017-10-28T12:05:14.697Z,16.8
2017-10-28T12:06:14.731Z,17.1
2017-10-28T12:07:14.720Z,17.4
2017-10-28T12:08:14.715Z,16.8
2017-10-28T12:09:14.729Z,17.6
2017-10-28T12:10:14.730Z,17.9
2017-10-28T12:11:14.724Z,17.4
2017-10-28T12:12:14.716Z,16.4
2017-10-28T12:13:14.722Z,16.4
2017-10-28T12:14:14.718Z,16.8
2017-10-28T12:15:14.726Z,16.9
2017-10-28T12:16:14.719Z,16.8
2017-10-28T12:17:14.711Z,16.9
2017-10-28T12:18:14.819Z,16
2017-10-28T12:19:14.709Z,15.2
2017-10-28T12:20:14.713Z,14.3
2017-10-28T12:21:14.724Z,13.8
2017-10-28T12:22:14.771Z,13.1
2017-10-28T12:23:14.716Z,13.9
2017-10-28T12:24:14.708Z,14.1
2017-10-28T12:25:14.717Z,14
2017-10-28T12:26:14.703Z,14.7
2017-10-28T12:27:14.762Z,14.1
2017-10-28T12:28:14.725Z,14.6
2017-10-28T12:29:14.731Z,14.7
2017-10-28T12:30:14.713Z,14.7
2017-10-28T12:31:14.712Z,14.3
2017-10-28T12:32:14.782Z,14.4
2017-10-28T12:33:14.723Z,15.3
2017-10-28T12:34:14.722Z,15.6
2017-10-28T12:35:14.716Z,15.9
2017-10-28T12:36:14.718Z,16.5
2017-10-28T12:37:14.778Z,16.8
2017-10-28T12:38:14.709Z,16.6
2017-10-28T12:39:14.722Z,16.5
2017-10-28T12:40:14.708Z,15.8
2017-10-28T12:41:14.716Z,15.8
2017-10-28T12:42:14.726Z,15.5
2017-10-28T12:43:14.721Z,14.3
2017-10-28T12:44:14.706Z,13.5
2017-10-28T12:45:14.716Z,13.4
2017-10-28T12:46:14.710Z,14.3
2017-10-28T12:47:14.703Z,14.5
2017-10-28T12:48:14.710Z,14.6
2017-10-28T12:49:14.703Z,15.1
2017-10-28T12:50:14.688Z,15.1
2017-10-28T12:51:14.687Z,14.9
2017-10-28T12:52:14.687Z,15.3
2017-10-28T12:53:14.690Z,15
2017-10-28T12:54:16.500Z,14.3
2017-10-28T12:55:16.214Z,14.2
2017-10-28T12:56:14.688Z,13.7
2017-10-28T12:57:14.705Z,13.4
2017-10-28T12:58:15.493Z,13.3
2017-10-28T12:59:14.685Z,13.6
2017-10-28T13:00:16.475Z,12.6
2017-10-28T13:01:14.690Z,12.6
2017-10-28T13:02:14.700Z,12.8
2017-10-28T13:03:14.702Z,12.4
2017-10-28T13:04:14.733Z,12.2
2017-10-28T13:05:14.781Z,11.7
2017-10-28T13:06:14.727Z,11.2
2017-10-28T13:07:14.733Z,10.4
2017-10-28T13:08:14.776Z,9.6
2017-10-28T13:09:14.745Z,9.5
2017-10-28T13:10:14.698Z,9.7
2017-10-28T13:11:14.708Z,9
2017-10-28T13:12:14.695Z,8.6
2017-10-28T13:13:14.719Z,8.5
2017-10-28T13:14:14.706Z,8.8
2017-10-28T13:15:14.688Z,9
2017-10-28T13:16:14.739Z,9.1
2017-10-28T13:17:17.963Z,8.9
2017-10-28T13:18:17.170Z,9.9
2017-10-28T13:19:14.925Z,9.6
2017-10-28T13:20:17.127Z,9.6
2017-10-28T13:21:18.505Z,9.9
2017-10-28T13:22:16.688Z,9.9
2017-10-28T13:23:16.810Z,9.7
2017-10-28T13:24:16.122Z,9.2
2017-10-28T13:25:17.924Z,9.9
2017-10-28T13:26:17.505Z,9.8
2017-10-28T13:27:17.760Z,9.7
2017-10-28T13:28:14.890Z,9.5
2017-10-28T13:29:16.456Z,10.1
2017-10-28T13:30:18.306Z,10.1
2017-10-28T13:31:16.519Z,9.4
2017-10-28T13:32:15.120Z,8.6
2017-10-28T13:33:14.775Z,8.3
2017-10-28T13:34:16.636Z,8.3
2017-10-28T13:35:14.714Z,8
2017-10-28T13:36:14.734Z,8.4
2017-10-28T13:37:14.698Z,8.6
2017-10-28T13:38:14.757Z,8.4
2017-10-28T13:39:14.694Z,7.9
2017-10-28T13:40:14.683Z,7.5
2017-10-28T13:41:14.701Z,7.3
2017-10-28T13:42:14.733Z,7.1
2017-10-28T13:43:19.210Z,7.6
2017-10-28T13:44:14.716Z,7.4
2017-10-28T13:45:14.735Z,7.6